Airfield :
LOGIN :

Register | Disclaimer

   EN    FR    IT 

 










Legend :    VFR   Marginal VFR   IFR   Intensive IFR   Very Intensive IFR
Visi :
Ceiling :
>= 8 km
>= 3000ft
5 to 8 km
1000 to 3000 ft
1500m to 5 km
500 to 1000 ft
800 to 1500m
200 to 500 ft
< 800m
< 200 ft
Symbols :   Thunderstorms  Fog  Heavy snow  Heavy precipitations  Wind > 20 kt
SIGMETs :     Misc.  Thunderstorms  Icing  Turbulence  Mountain Waves  Volcanic Ashes






- Airport Elevation : 37 ft


EHVL - Vlieland Heliport

CURRENT METAR :
  • 181717Z AUTO 26020KT 9999 FEW014 SCT025 BKN028 06/04 Q1015 BLU

EXPIRED METARs :
  • 181710Z AUTO 27020KT 9999 FEW014 SCT023 OVC026 06/04 Q1016 WHT
  • 181658Z AUTO 27019KT 9999 FEW017 OVC025 06/04 Q1016 BLU
  • 181655Z AUTO 27020KT 9999 SCT018 BKN021 OVC025 06/04 Q1016 WHT
  • 181625Z AUTO 27021KT 9999 FEW016 BKN019 OVC023 06/04 Q1016 WHT
  • 181555Z AUTO 27021KT 9999 FEW017 BKN024 OVC028 06/04 Q1016 WHT
  • 181538Z AUTO 27021KT 9999 FEW016 BKN025 OVC029 06/04 Q1016 BLU
  • 181525Z AUTO 27021KT 9999 FEW018 OVC024 06/04 Q1016 WHT
  • 181514Z AUTO 27021KT 9999 FEW014 OVC024 06/04 Q1016 WHT
  • 181455Z AUTO 27021KT 9999 FEW016 BKN021 OVC026 06/04 Q1016 WHT
  • 181425Z AUTO 27020KT 9999 SCT016 OVC021 06/04 Q1016 WHT

Expired Forecast.



MET'MAP, your aeronautical weather chart ! - Copyright ORBIFLY December 2007 - Disclaimer

ORBIFLY MET'MAP TEAM :

Programming & Development : Alexandra Zaïnal
Concept & original design : Baudouin d'Aumeries
Assistance for programming : Marc-Olivier Méhu
Technical & hardware support : Manuel Goepfert

Contact : metmap@orbifly.com




SOURCES & CREDITS :

   NOAA